Time;durP1;ratioP1;P1;durP2;ratioP2;P2;SDS_P1;SDS_P2;PMS_P1;PMS_P2;Temp;Humidity;BMP_temperature;BMP_pressure;BME280_temperature;BME280_humidity;BME280_pressure;Samples;Min_cycle;Max_cycle;Signal;HPM_P1;HPM_P2
2022/10/24 00:01:14;;;;;;;;;;;;;;;12.82;58.14;100431.56;4913506;29;19919;-82
2022/10/24 00:03:39;;;;;;;;;;;;;;;12.95;57.80;100441.13;4928793;29;19926;-82
2022/10/24 00:06:06;;;;;;;;;;;;;;;12.76;58.10;100429.00;4911302;29;20362;-81
2022/10/24 00:08:31;;;;;;;;;;;;;;;12.79;58.59;100421.03;4913555;29;20416;-81
2022/10/24 00:10:57;;;;;;;;;;;;;;;12.83;58.51;100417.44;4913233;29;19915;-81
2022/10/24 00:13:22;;;;;;;;;;;;;;;12.79;58.14;100424.56;4911788;29;19919;-81
2022/10/24 00:15:48;;;;;;;;;;;;;;;12.76;59.11;100424.59;4914410;29;20402;-81
2022/10/24 00:18:13;;;;;;;;;;;;;;;12.70;59.37;100420.25;4930924;29;20444;-81
2022/10/24 00:20:39;;;;;;;;;;;;;;;12.53;59.95;100414.28;4918422;29;20867;-81
2022/10/24 00:23:04;;;;;;;;;;;;;;;12.53;59.80;100414.28;4912111;29;19929;-81
2022/10/24 00:25:30;;;;;;;;;;;;;;;12.33;60.63;100411.88;4912268;29;19970;-81
2022/10/24 00:27:55;;;;;;;;;;;;;;;12.36;60.84;100415.34;4929400;29;19922;-81
2022/10/24 00:30:20;;;;;;;;;;;;;;;12.21;61.93;100415.50;4930754;29;20317;-81
2022/10/24 00:32:45;;;;;;;;;;;;;;;12.26;62.14;100411.03;4917612;29;19954;-81
2022/10/24 00:35:11;;;;;;;;;;;;;;;12.38;62.01;100412.69;4912092;29;19962;-82
2022/10/24 00:37:36;;;;;;;;;;;;;;;12.47;61.36;100411.72;4919520;29;19985;-82
2022/10/24 00:40:04;;;;;;;;;;;;;;;12.44;61.77;100411.75;4930844;29;19919;-84
2022/10/24 00:42:29;;;;;;;;;;;;;;;12.49;61.80;100407.25;4930563;29;19919;-83
2022/10/24 00:44:55;;;;;;;;;;;;;;;12.42;61.14;100408.22;4930766;29;19926;-83
2022/10/24 00:47:24;;;;;;;;;;;;;;;12.49;60.77;100410.78;4930277;29;19919;-80
2022/10/24 00:49:49;;;;;;;;;;;;;;;12.28;61.16;100416.31;4928020;29;20441;-83
2022/10/24 00:52:17;;;;;;;;;;;;;;;12.17;62.80;100424.34;4929829;29;19922;-80
2022/10/24 00:54:42;;;;;;;;;;;;;;;12.33;62.92;100422.44;4930415;29;19918;-81
2022/10/24 00:57:14;;;;;;;;;;;;;;;12.51;62.53;100426.63;4930394;29;19923;-80
2022/10/24 00:59:41;;;;;;;;;;;;;;;12.78;61.66;100421.94;4930460;29;20475;-80
2022/10/24 01:02:07;;;;;;;;;;;;;;;12.71;61.66;100423.75;4930172;29;20532;-80
2022/10/24 01:04:32;;;;;;;;;;;;;;;12.74;61.20;100418.44;4929970;29;19918;-81
2022/10/24 01:07:17;;;;;;;;;;;;;;;12.83;61.19;100418.31;4912420;29;19923;-81
2022/10/24 01:09:42;;;;;;;;;;;;;;;12.72;61.22;100413.16;4911879;29;19982;-80
2022/10/24 01:12:07;;;;;;;;;;;;;;;12.72;61.53;100421.09;4910805;29;20022;-80
2022/10/24 01:14:51;;;;;;;;;;;;;;;12.63;62.01;100409.75;4911396;29;20395;-81
2022/10/24 01:17:35;;;;;;;;;;;;;;;12.63;61.69;100407.97;4910812;29;19919;-81
2022/10/24 01:20:00;;;;;;;;;;;;;;;12.66;61.19;100402.63;4911610;29;20026;-81
2022/10/24 01:22:44;;;;;;;;;;;;;;;12.61;61.42;100400.97;4911271;29;20425;-81
2022/10/24 01:25:21;;;;;;;;;;;;;;;12.53;61.50;100401.91;4915797;29;19915;-80
2022/10/24 01:27:46;;;;;;;;;;;;;;;12.61;61.18;100398.31;4933565;29;20661;-81
2022/10/24 01:30:12;;;;;;;;;;;;;;;12.49;61.19;100394.03;4934038;29;19918;-81
2022/10/24 01:32:45;;;;;;;;;;;;;;;12.48;60.95;100400.22;4916926;29;20011;-81
2022/10/24 01:35:16;;;;;;;;;;;;;;;12.56;60.92;100394.81;4922045;29;19918;-81
2022/10/24 01:38:00;;;;;;;;;;;;;;;12.53;60.25;100393.97;4934126;29;19914;-81
2022/10/24 01:40:49;;;;;;;;;;;;;;;12.41;60.13;100390.63;4934203;29;19951;-81
2022/10/24 01:43:16;;;;;;;;;;;;;;;12.22;60.87;100405.78;4917841;29;19999;-80
2022/10/24 01:45:44;;;;;;;;;;;;;;;12.28;60.97;100406.63;4914739;29;19919;-81
2022/10/24 01:48:12;;;;;;;;;;;;;;;12.23;61.27;100397.84;4914924;29;19926;-81
2022/10/24 01:50:39;;;;;;;;;;;;;;;12.18;61.71;100400.53;4897374;29;19927;-81
2022/10/24 01:53:06;;;;;;;;;;;;;;;12.23;61.18;100411.06;4914552;29;19934;-82
2022/10/24 01:55:31;;;;;;;;;;;;;;;12.12;61.42;100408.53;4914840;29;19919;-82
2022/10/24 01:57:57;;;;;;;;;;;;;;;12.03;62.35;100411.25;4914311;29;20341;-81
2022/10/24 02:00:23;;;;;;;;;;;;;;;12.07;62.09;100404.19;4914421;29;20370;-81
2022/10/24 02:02:51;;;;;;;;;;;;;;;12.06;61.75;100407.72;4913635;29;20413;-81
2022/10/24 02:05:23;;;;;;;;;;;;;;;12.08;61.96;100414.75;4915046;29;19918;-81
2022/10/24 02:07:52;;;;;;;;;;;;;;;12.00;62.28;100413.94;4897218;29;20333;-81
2022/10/24 02:10:19;;;;;;;;;;;;;;;12.07;62.41;100420.06;4914606;29;20070;-81
2022/10/24 02:12:48;;;;;;;;;;;;;;;12.03;62.04;100415.69;4914507;29;19919;-81
2022/10/24 02:15:18;;;;;;;;;;;;;;;11.86;62.13;100415.81;4913840;29;20009;-80
2022/10/24 02:17:44;;;;;;;;;;;;;;;11.51;63.12;100427.53;4914292;29;19919;-81
2022/10/24 02:20:10;;;;;;;;;;;;;;;11.60;63.14;100423.06;4914061;29;19951;-81
2022/10/24 02:22:44;;;;;;;;;;;;;;;11.68;62.65;100427.41;4913770;29;19919;-81
2022/10/24 02:25:11;;;;;;;;;;;;;;;11.54;63.08;100417.81;4914034;29;19919;-83
2022/10/24 02:27:39;;;;;;;;;;;;;;;11.61;63.25;100423.94;4913634;29;19919;-81
2022/10/24 02:30:10;;;;;;;;;;;;;;;11.49;63.22;100431.94;4913299;29;19930;-81
2022/10/24 02:32:39;;;;;;;;;;;;;;;11.47;63.96;100421.41;4914008;29;19923;-81
2022/10/24 02:35:06;;;;;;;;;;;;;;;11.47;63.78;100432.81;4913518;29;19919;-81
2022/10/24 02:37:32;;;;;;;;;;;;;;;11.56;63.43;100437.19;4913686;29;19919;-80
2022/10/24 02:39:59;;;;;;;;;;;;;;;11.53;63.99;100436.34;4913305;29;19930;-81
2022/10/24 02:42:27;;;;;;;;;;;;;;;11.73;63.60;100433.53;4913457;29;19919;-80
2022/10/24 02:44:53;;;;;;;;;;;;;;;11.49;63.92;100435.47;4913817;29;19923;-81
2022/10/24 02:47:20;;;;;;;;;;;;;;;11.47;64.35;100432.81;4913636;29;19919;-80
2022/10/24 02:49:45;;;;;;;;;;;;;;;11.69;63.06;100431.81;4913522;29;19923;-80
2022/10/24 02:52:11;;;;;;;;;;;;;;;11.56;63.60;100425.75;4894686;29;19919;-80
2022/10/24 02:54:36;;;;;;;;;;;;;;;11.66;63.32;100424.75;4894496;29;19926;-80
2022/10/24 02:57:02;;;;;;;;;;;;;;;11.71;63.12;100420.34;4900621;29;19923;-81
2022/10/24 02:59:28;;;;;;;;;;;;;;;11.70;62.94;100425.63;4913233;29;19930;-80
2022/10/24 03:01:53;;;;;;;;;;;;;;;11.68;62.99;100422.09;4912853;29;19923;-81
2022/10/24 03:04:19;;;;;;;;;;;;;;;11.70;62.77;100425.63;4913032;29;20017;-80
2022/10/24 03:06:44;;;;;;;;;;;;;;;11.69;62.60;100431.81;4913461;29;19978;-81
2022/10/24 03:09:09;;;;;;;;;;;;;;;11.70;62.39;100430.91;4913027;29;20721;-80
2022/10/24 03:11:35;;;;;;;;;;;;;;;11.65;62.12;100433.59;4912807;29;19927;-81
2022/10/24 03:14:00;;;;;;;;;;;;;;;11.33;62.62;100431.19;4912928;29;20469;-79
2022/10/24 03:16:27;;;;;;;;;;;;;;;11.34;62.91;100432.91;4913606;29;20017;-81
2022/10/24 03:18:52;;;;;;;;;;;;;;;11.32;62.81;100426.78;4913199;29;19919;-80
2022/10/24 03:21:18;;;;;;;;;;;;;;;11.32;63.05;100418.84;4913227;29;19915;-80
2022/10/24 03:23:43;;;;;;;;;;;;;;;11.14;63.94;100427.75;4912832;29;19930;-80
2022/10/24 03:26:08;;;;;;;;;;;;;;;11.05;64.70;100428.69;4913037;29;20662;-80
2022/10/24 03:28:34;;;;;;;;;;;;;;;11.15;64.78;100422.47;4912893;29;20679;-80
2022/10/24 03:30:59;;;;;;;;;;;;;;;11.29;64.44;100422.38;4912682;29;20472;-80
2022/10/24 03:33:24;;;;;;;;;;;;;;;11.31;64.04;100410.06;4920733;29;19933;-80
2022/10/24 03:35:51;;;;;;;;;;;;;;;11.20;64.48;100425.06;4912575;29;19919;-80
2022/10/24 03:38:16;;;;;;;;;;;;;;;11.34;64.22;100415.31;4912580;29;19915;-80
2022/10/24 03:40:41;;;;;;;;;;;;;;;11.41;64.01;100406.44;4912829;29;19918;-81
2022/10/24 03:43:07;;;;;;;;;;;;;;;11.37;64.10;100411.75;4912770;29;20417;-79
2022/10/24 03:45:32;;;;;;;;;;;;;;;11.25;64.03;100410.09;4902788;29;19919;-80
2022/10/24 03:47:57;;;;;;;;;;;;;;;11.40;63.96;100417.94;4920723;29;19993;-80
2022/10/24 03:50:23;;;;;;;;;;;;;;;11.45;63.91;100416.13;4921200;29;20318;-81
2022/10/24 03:52:48;;;;;;;;;;;;;;;11.48;63.59;100415.22;4912783;29;19966;-82
2022/10/24 03:55:13;;;;;;;;;;;;;;;11.59;63.46;100423.94;4912769;29;19921;-85
2022/10/24 03:57:39;;;;;;;;;;;;;;;11.59;63.21;100429.22;4913721;29;20321;-84
2022/10/24 04:00:05;;;;;;;;;;;;;;;11.37;63.60;100425.88;4914754;29;20319;-86
2022/10/24 04:02:30;;;;;;;;;;;;;;;11.42;63.64;100421.44;4898750;29;19919;-91
2022/10/24 04:04:56;;;;;;;;;;;;;;;11.40;63.46;100417.94;4913695;29;19922;-88
2022/10/24 04:07:21;;;;;;;;;;;;;;;11.50;63.50;100412.56;4913211;29;20005;-87
2022/10/24 04:09:46;;;;;;;;;;;;;;;11.39;64.04;100413.53;4913324;29;20046;-90
2022/10/24 04:12:13;;;;;;;;;;;;;;;11.52;63.46;100413.44;4913008;29;20009;-87
2022/10/24 04:14:39;;;;;;;;;;;;;;;11.25;63.99;100405.69;4913041;29;19923;-85
2022/10/24 04:17:04;;;;;;;;;;;;;;;11.27;64.38;100406.53;4914840;29;19923;-86
2022/10/24 04:19:31;;;;;;;;;;;;;;;11.25;63.75;100412.75;4913461;29;19919;-87
2022/10/24 04:21:56;;;;;;;;;;;;;;;11.31;63.27;100409.16;4912024;29;19954;-83
2022/10/24 04:24:22;;;;;;;;;;;;;;;11.30;63.41;100405.66;4912607;29;19942;-87
2022/10/24 04:26:47;;;;;;;;;;;;;;;11.18;63.30;100403.09;4915216;29;20317;-84
2022/10/24 04:29:12;;;;;;;;;;;;;;;11.26;63.10;100404.81;4914867;29;19926;-86
2022/10/24 04:31:38;;;;;;;;;;;;;;;11.11;63.75;100411.06;4912057;29;19923;-85
2022/10/24 04:34:09;;;;;;;;;;;;;;;11.04;63.88;100411.97;4895117;29;19919;-84
2022/10/24 04:36:34;;;;;;;;;;;;;;;10.90;64.09;100412.03;4914528;29;19918;-83
2022/10/24 04:39:00;;;;;;;;;;;;;;;10.95;64.76;100413.78;4913199;29;19943;-88
2022/10/24 04:41:25;;;;;;;;;;;;;;;11.10;64.05;100417.22;4913222;29;20045;-84
2022/10/24 04:43:51;;;;;;;;;;;;;;;11.13;63.75;100415.47;4896646;29;19919;-86
2022/10/24 04:46:17;;;;;;;;;;;;;;;11.02;64.36;100426.06;4927534;29;20024;-85
2022/10/24 04:48:42;;;;;;;;;;;;;;;11.03;63.86;100418.16;4931229;29;20013;-83
2022/10/24 04:51:07;;;;;;;;;;;;;;;11.10;64.22;100418.97;4930532;29;19929;-86
2022/10/24 04:53:33;;;;;;;;;;;;;;;11.12;64.51;100419.84;4930102;29;19922;-88
2022/10/24 04:55:58;;;;;;;;;;;;;;;11.14;64.48;100419.84;4916499;29;19955;-87
2022/10/24 04:58:23;;;;;;;;;;;;;;;11.16;64.53;100418.94;4928527;29;19922;-84
2022/10/24 05:00:49;;;;;;;;;;;;;;;11.17;64.79;100418.06;4929689;29;19972;-84
2022/10/24 05:03:17;;;;;;;;;;;;;;;11.31;63.56;100415.34;4919419;29;20021;-85
2022/10/24 05:05:43;;;;;;;;;;;;;;;11.10;64.31;100422.50;4930066;29;19919;-86
2022/10/24 05:08:08;;;;;;;;;;;;;;;11.16;64.41;100424.22;4930378;29;20754;-85
2022/10/24 05:10:34;;;;;;;;;;;;;;;11.13;64.76;100423.38;4930389;29;19926;-86
2022/10/24 05:12:59;;;;;;;;;;;;;;;11.21;64.60;100419.78;4930350;29;19950;-86
2022/10/24 05:15:24;;;;;;;;;;;;;;;11.35;64.77;100418.84;4947012;29;19922;-86
2022/10/24 05:17:50;;;;;;;;;;;;;;;11.47;64.60;100422.25;4944292;29;20437;-85
2022/10/24 05:20:15;;;;;;;;;;;;;;;11.65;65.34;100420.38;4930244;29;19922;-85
2022/10/24 05:22:40;;;;;;;;;;;;;;;11.89;65.08;100427.22;4933135;29;19914;-85
2022/10/24 05:25:06;;;;;;;;;;;;;;;12.03;65.00;100435.06;4915715;29;19918;-85
2022/10/24 05:27:31;;;;;;;;;;;;;;;12.16;64.51;100435.84;4939386;29;20039;-86
2022/10/24 05:29:57;;;;;;;;;;;;;;;12.40;63.59;100441.78;4936648;29;19919;-84
2022/10/24 05:32:22;;;;;;;;;;;;;;;12.44;63.43;100435.56;4933092;29;20373;-81
2022/10/24 05:34:48;;;;;;;;;;;;;;;12.53;63.56;100444.25;4927652;29;20369;-83
2022/10/24 05:37:13;;;;;;;;;;;;;;;12.54;63.01;100446.03;4936456;29;19978;-82
2022/10/24 05:39:38;;;;;;;;;;;;;;;12.56;63.11;100442.47;4924683;29;19919;-84
2022/10/24 05:42:04;;;;;;;;;;;;;;;12.54;63.12;100450.41;4929809;29;20623;-85
2022/10/24 05:44:29;;;;;;;;;;;;;;;12.66;62.97;100460.00;4929834;29;19919;-86
2022/10/24 05:46:55;;;;;;;;;;;;;;;12.94;62.04;100449.09;4921652;29;19927;-85
2022/10/24 05:49:20;;;;;;;;;;;;;;;13.06;61.91;100451.56;4920447;29;20443;-85
2022/10/24 05:51:45;;;;;;;;;;;;;;;13.23;61.70;100441.63;4916790;29;20391;-83
2022/10/24 05:54:11;;;;;;;;;;;;;;;13.54;60.91;100449.16;4910948;29;19922;-83
2022/10/24 05:56:36;;;;;;;;;;;;;;;13.76;60.47;100447.06;4910812;29;20385;-84
2022/10/24 05:59:02;;;;;;;;;;;;;;;13.92;60.35;100446.81;4910668;29;19919;-84
2022/10/24 06:01:28;;;;;;;;;;;;;;;13.91;59.75;100455.66;4911058;29;19925;-83
2022/10/24 06:03:53;;;;;;;;;;;;;;;14.22;58.88;100455.13;4911049;29;19997;-83
2022/10/24 06:06:19;;;;;;;;;;;;;;;14.33;59.34;100455.78;4911522;29;19926;-83
2022/10/24 06:08:44;;;;;;;;;;;;;;;14.24;59.38;100456.88;4910635;29;19930;-83
2022/10/24 06:11:10;;;;;;;;;;;;;;;14.64;59.64;100461.47;4921152;29;19925;-83
2022/10/24 06:13:36;;;;;;;;;;;;;;;14.64;58.90;100471.19;4933286;29;19985;-84
2022/10/24 06:16:01;;;;;;;;;;;;;;;14.97;59.22;100463.47;4933434;29;19915;-84
2022/10/24 06:18:27;;;;;;;;;;;;;;;15.22;57.49;100467.31;4932376;29;20593;-83
2022/10/24 06:20:52;;;;;;;;;;;;;;;15.30;57.34;100460.97;4933326;29;19922;-83
2022/10/24 06:23:17;;;;;;;;;;;;;;;15.62;55.93;100454.06;4933004;29;19922;-83
2022/10/24 06:25:43;;;;;;;;;;;;;;;15.82;54.18;100461.56;4933165;29;19915;-83
2022/10/24 06:28:08;;;;;;;;;;;;;;;15.92;54.11;100466.59;4916178;29;20577;-83
2022/10/24 06:30:34;;;;;;;;;;;;;;;16.03;53.38;100461.03;4933119;29;19918;-84
2022/10/24 06:33:00;;;;;;;;;;;;;;;16.04;52.71;100465.44;4932916;29;19925;-83
2022/10/24 06:35:25;;;;;;;;;;;;;;;16.31;53.62;100467.44;4933162;29;19922;-84
2022/10/24 06:37:51;;;;;;;;;;;;;;;16.35;52.13;100469.09;4932608;29;19966;-84
2022/10/24 06:40:17;;;;;;;;;;;;;;;16.77;52.29;100464.38;4932848;29;19925;-84
2022/10/24 06:42:42;;;;;;;;;;;;;;;16.87;53.43;100469.47;4933291;29;19914;-84
2022/10/24 06:45:08;;;;;;;;;;;;;;;17.06;52.86;100464.50;4932335;29;20001;-84
2022/10/24 06:47:33;;;;;;;;;;;;;;;17.16;51.82;100461.50;4933007;29;19919;-83
2022/10/24 06:49:58;;;;;;;;;;;;;;;17.83;50.89;100470.97;4932964;29;19919;-83
2022/10/24 06:52:24;;;;;;;;;;;;;;;17.99;49.08;100463.34;4932375;29;20312;-83
2022/10/24 06:54:49;;;;;;;;;;;;;;;17.76;48.97;100471.22;4932842;29;20329;-83
2022/10/24 06:57:14;;;;;;;;;;;;;;;17.81;49.26;100469.28;4932539;29;19923;-84
2022/10/24 06:59:40;;;;;;;;;;;;;;;18.18;48.42;100468.97;4932480;29;20658;-83
2022/10/24 07:02:05;;;;;;;;;;;;;;;18.55;47.32;100467.69;4932606;29;19915;-83
2022/10/24 07:04:31;;;;;;;;;;;;;;;18.46;48.42;100467.13;4932432;29;19915;-83
2022/10/24 07:06:56;;;;;;;;;;;;;;;18.12;47.97;100462.94;4932219;29;19918;-85
2022/10/24 07:09:21;;;;;;;;;;;;;;;18.40;47.09;100465.56;4932776;29;20362;-83
2022/10/24 07:11:47;;;;;;;;;;;;;;;18.31;47.50;100460.53;4930864;29;19922;-84
2022/10/24 07:14:12;;;;;;;;;;;;;;;18.28;48.05;100464.19;4932229;29;19961;-83
2022/10/24 07:16:38;;;;;;;;;;;;;;;18.64;48.42;100461.13;4932277;29;19915;-84
2022/10/24 07:19:04;;;;;;;;;;;;;;;18.51;47.82;100459.84;4932230;29;19978;-82
2022/10/24 07:21:30;;;;;;;;;;;;;;;18.81;47.90;100451.63;4931249;29;19919;-83
2022/10/24 07:23:56;;;;;;;;;;;;;;;18.96;47.13;100448.41;4931954;29;20084;-82
2022/10/24 07:26:21;;;;;;;;;;;;;;;19.11;47.57;100449.63;4914856;29;20457;-81
2022/10/24 07:28:52;;;;;;;;;;;;;;;19.05;46.56;100447.19;4931684;29;19915;-83
2022/10/24 07:31:17;;;;;;;;;;;;;;;18.81;46.70;100449.81;4931738;29;20412;-82
2022/10/24 07:33:43;;;;;;;;;;;;;;;18.69;47.53;100450.25;4932034;29;19953;-82
2022/10/24 07:36:08;;;;;;;;;;;;;;;18.81;47.95;100447.13;4931786;29;20452;-83
2022/10/24 07:38:34;;;;;;;;;;;;;;;19.24;46.30;100447.34;4931706;29;19919;-82
2022/10/24 07:41:05;;;;;;;;;;;;;;;19.42;45.85;100440.41;4931263;29;19919;-82
2022/10/24 07:43:30;;;;;;;;;;;;;;;19.35;46.49;100444.25;4931609;29;19922;-83
2022/10/24 07:45:56;;;;;;;;;;;;;;;19.41;46.16;100444.88;4931683;29;19985;-82
2022/10/24 07:48:21;;;;;;;;;;;;;;;19.21;45.27;100451.00;4931262;29;20313;-82
2022/10/24 07:50:47;;;;;;;;;;;;;;;19.45;44.82;100443.81;4931365;29;19919;-82
2022/10/24 07:53:13;;;;;;;;;;;;;;;19.28;45.60;100448.97;4931686;29;19969;-82
2022/10/24 07:55:39;;;;;;;;;;;;;;;19.44;44.77;100444.75;4931858;29;19919;-82
2022/10/24 07:58:04;;;;;;;;;;;;;;;19.75;45.08;100446.19;4931327;29;19962;-82
2022/10/24 08:00:29;;;;;;;;;;;;;;;19.98;44.96;100452.44;4930913;29;20762;-82
2022/10/24 08:02:55;;;;;;;;;;;;;;;20.54;43.49;100445.53;4931446;29;20005;-82
2022/10/24 08:05:20;;;;;;;;;;;;;;;20.25;43.51;100444.16;4931138;29;20013;-82
2022/10/24 08:07:45;;;;;;;;;;;;;;;20.25;42.19;100445.03;4930997;29;19961;-82
2022/10/24 08:10:11;;;;;;;;;;;;;;;20.40;42.33;100448.84;4931288;29;20008;-83
2022/10/24 08:12:36;;;;;;;;;;;;;;;20.72;41.45;100436.72;4931795;29;20017;-83
2022/10/24 08:15:02;;;;;;;;;;;;;;;20.53;42.12;100441.16;4930734;29;19962;-82
2022/10/24 08:17:28;;;;;;;;;;;;;;;20.95;40.57;100434.78;4931525;29;20464;-83
2022/10/24 08:19:53;;;;;;;;;;;;;;;20.99;39.84;100431.03;4930857;29;20300;-82
2022/10/24 08:22:18;;;;;;;;;;;;;;;21.12;42.13;100436.69;4931047;29;19977;-82
2022/10/24 08:24:44;;;;;;;;;;;;;;;21.18;41.34;100430.13;4931084;29;20324;-83
2022/10/24 08:27:10;;;;;;;;;;;;;;;21.00;40.56;100435.44;4930956;29;20005;-82
2022/10/24 08:29:35;;;;;;;;;;;;;;;20.72;40.90;100425.97;4930589;29;19968;-83
2022/10/24 08:32:01;;;;;;;;;;;;;;;20.85;40.71;100425.44;4931069;29;19918;-83
2022/10/24 08:34:26;;;;;;;;;;;;;;;20.79;41.45;100423.91;4930297;29;19950;-83
2022/10/24 08:36:52;;;;;;;;;;;;;;;20.77;41.34;100424.91;4930661;29;19923;-83
2022/10/24 08:39:17;;;;;;;;;;;;;;;20.97;40.55;100421.31;4930667;29;19919;-82
2022/10/24 08:41:45;;;;;;;;;;;;;;;21.38;39.87;100421.13;4931042;29;19962;-82
2022/10/24 08:44:29;;;;;;;;;;;;;;;21.62;40.27;100421.78;4930551;29;19922;-83
2022/10/24 08:47:03;;;;;;;;;;;;;;;21.46;39.22;100418.97;4930538;29;20010;-83
2022/10/24 08:49:52;;;;;;;;;;;;;;;21.61;38.84;100415.56;4931119;29;19964;-82
2022/10/24 08:52:23;;;;;;;;;;;;;;;21.39;39.02;100417.53;4925015;29;19918;-84
2022/10/24 08:54:49;;;;;;;;;;;;;;;21.58;38.56;100409.47;4931037;29;20017;-83
2022/10/24 08:57:40;;;;;;;;;;;;;;;21.96;38.38;100406.66;4929754;29;19997;-84
2022/10/24 09:00:17;;;;;;;;;;;;;;;21.75;38.36;100397.88;4928526;29;19919;-82
2022/10/24 09:02:44;;;;;;;;;;;;;;;21.22;38.90;100395.03;4930247;29;20859;-82
2022/10/24 09:05:12;;;;;;;;;;;;;;;21.33;38.90;100391.00;4930702;29;20046;-82
2022/10/24 09:07:38;;;;;;;;;;;;;;;21.60;39.65;100396.84;4930180;29;19911;-83
2022/10/24 09:10:12;;;;;;;;;;;;;;;21.97;38.99;100392.31;4930013;29;19925;-82
2022/10/24 09:12:38;;;;;;;;;;;;;;;22.16;38.47;100397.59;4928757;29;20016;-82
2022/10/24 09:15:07;;;;;;;;;;;;;;;22.28;37.89;100386.19;4927605;29;19918;-80
2022/10/24 09:17:33;;;;;;;;;;;;;;;22.33;38.49;100385.97;4921796;29;19922;-81
2022/10/24 09:20:17;;;;;;;;;;;;;;;22.52;37.68;100377.78;4927685;29;19961;-81
2022/10/24 09:22:43;;;;;;;;;;;;;;;22.59;37.08;100376.53;4929063;29;19914;-81
2022/10/24 09:25:14;;;;;;;;;;;;;;;22.68;37.77;100373.34;4929381;29;20377;-82
2022/10/24 09:27:40;;;;;;;;;;;;;;;22.73;36.89;100365.00;4929636;29;19946;-83
2022/10/24 09:30:07;;;;;;;;;;;;;;;22.73;37.01;100361.47;4926560;29;20013;-82
2022/10/24 09:32:34;;;;;;;;;;;;;;;22.70;37.68;100365.19;4929886;29;20279;-83
2022/10/24 09:35:02;;;;;;;;;;;;;;;22.82;38.43;100358.28;4929092;29;19977;-82
2022/10/24 09:37:31;;;;;;;;;;;;;;;22.89;37.88;100349.78;4929251;29;20385;-84
2022/10/24 09:40:07;;;;;;;;;;;;;;;23.07;37.00;100350.53;4929662;29;19921;-81
2022/10/24 09:42:33;;;;;;;;;;;;;;;23.36;36.25;100345.34;4930065;29;19946;-82
2022/10/24 09:44:58;;;;;;;;;;;;;;;23.26;36.45;100343.28;4930140;29;19977;-82
2022/10/24 09:47:25;;;;;;;;;;;;;;;22.91;37.47;100344.31;4930923;29;19957;-82
2022/10/24 09:49:51;;;;;;;;;;;;;;;22.89;37.45;100338.13;4908902;29;19974;-83
2022/10/24 09:52:24;;;;;;;;;;;;;;;22.85;37.03;100331.19;4911672;29;19915;-82
2022/10/24 09:55:05;;;;;;;;;;;;;;;22.91;36.31;100328.16;4912777;29;20283;-82
2022/10/24 09:57:36;;;;;;;;;;;;;;;23.00;36.94;100321.38;4913135;29;19958;-82
2022/10/24 10:00:03;;;;;;;;;;;;;;;23.22;36.33;100319.25;4912070;29;19994;-83
2022/10/24 10:02:33;;;;;;;;;;;;;;;23.38;35.88;100318.34;4913517;29;19923;-82
2022/10/24 10:05:01;;;;;;;;;;;;;;;23.33;36.02;100313.22;4912225;29;19919;-82
2022/10/24 10:07:28;;;;;;;;;;;;;;;23.41;35.89;100310.94;4912594;29;20394;-83
2022/10/24 10:09:55;;;;;;;;;;;;;;;23.50;35.75;100306.84;4895475;29;20677;-81
2022/10/24 10:12:30;;;;;;;;;;;;;;;23.33;35.37;100310.53;4912033;29;19926;-81
2022/10/24 10:14:56;;;;;;;;;;;;;;;23.11;35.93;100297.47;4912389;29;19919;-81
2022/10/24 10:17:23;;;;;;;;;;;;;;;23.07;36.24;100299.41;4912318;29;20424;-81
2022/10/24 10:19:50;;;;;;;;;;;;;;;23.62;35.30;100293.59;4912354;29;20405;-81
2022/10/24 10:22:31;;;;;;;;;;;;;;;23.61;35.25;100287.38;4912582;29;19915;-82
2022/10/24 10:24:58;;;;;;;;;;;;;;;23.58;35.44;100285.72;4930148;29;20468;-83
2022/10/24 10:27:26;;;;;;;;;;;;;;;23.71;34.64;100288.56;4914925;29;19977;-82
2022/10/24 10:30:14;;;;;;;;;;;;;;;23.49;35.37;100274.63;4931673;29;20012;-83
2022/10/24 10:32:51;;;;;;;;;;;;;;;23.68;35.52;100267.19;4922431;29;20392;-82
2022/10/24 10:35:16;;;;;;;;;;;;;;;23.93;35.72;100263.91;4931719;29;19997;-82
2022/10/24 10:37:55;;;;;;;;;;;;;;;23.78;35.13;100260.28;4931977;29;20009;-84
2022/10/24 10:40:36;;;;;;;;;;;;;;;23.94;35.08;100254.88;4932323;29;19919;-83
2022/10/24 10:43:13;;;;;;;;;;;;;;;23.93;35.15;100255.81;4932038;29;20460;-83
2022/10/24 10:45:44;;;;;;;;;;;;;;;23.96;34.72;100257.47;4891526;29;1205780;-82
2022/10/24 10:48:21;;;;;;;;;;;;;;;23.93;35.20;100252.25;4934656;29;19922;-82
2022/10/24 10:50:55;;;;;;;;;;;;;;;24.20;34.30;100241.56;4933846;29;19918;-83
2022/10/24 10:53:40;;;;;;;;;;;;;;;24.02;35.01;100243.59;4916785;29;20309;-82
2022/10/24 10:56:13;;;;;;;;;;;;;;;24.41;34.19;100241.19;4933228;29;19938;-80
2022/10/24 10:58:47;;;;;;;;;;;;;;;24.43;34.55;100244.63;4933221;29;20013;-81
2022/10/24 11:01:20;;;;;;;;;;;;;;;24.61;33.85;100227.28;4933524;29;19914;-80
2022/10/24 11:04:00;;;;;;;;;;;;;;;24.77;34.08;100224.44;4932896;29;19969;-83
2022/10/24 11:06:28;;;;;;;;;;;;;;;24.76;33.86;100219.16;4932347;29;19997;-82
2022/10/24 11:08:59;;;;;;;;;;;;;;;24.69;34.02;100217.84;4932532;29;19970;-80
2022/10/24 11:11:33;;;;;;;;;;;;;;;24.85;33.89;100218.53;4932269;29;19922;-81
2022/10/24 11:14:01;;;;;;;;;;;;;;;25.07;33.83;100219.81;4932405;29;19921;-82
2022/10/24 11:16:27;;;;;;;;;;;;;;;24.99;34.00;100221.22;4932020;29;19918;-82
2022/10/24 11:18:55;;;;;;;;;;;;;;;24.66;33.86;100216.22;4932373;29;19915;-81
2022/10/24 11:21:23;;;;;;;;;;;;;;;24.82;34.05;100211.53;4915165;29;20355;-82
2022/10/24 11:24:03;;;;;;;;;;;;;;;24.77;33.84;100208.25;4932350;29;19937;-82
2022/10/24 11:26:34;;;;;;;;;;;;;;;24.78;33.76;100215.41;4931822;29;19918;-81
2022/10/24 11:29:08;;;;;;;;;;;;;;;25.02;33.75;100202.13;4932130;29;20393;-81
2022/10/24 11:31:38;;;;;;;;;;;;;;;25.01;33.44;100202.22;4931961;29;19926;-82
2022/10/24 11:34:16;;;;;;;;;;;;;;;25.09;33.91;100204.41;4932010;29;19919;-82
2022/10/24 11:36:48;;;;;;;;;;;;;;;25.21;33.84;100198.16;4931661;29;19915;-82
2022/10/24 11:39:23;;;;;;;;;;;;;;;25.22;33.60;100182.81;4931989;29;19918;-82
2022/10/24 11:42:07;;;;;;;;;;;;;;;25.19;33.75;100182.09;4931015;29;20690;-82
2022/10/24 11:44:37;;;;;;;;;;;;;;;25.42;33.51;100176.09;4931604;29;20397;-83
2022/10/24 11:47:19;;;;;;;;;;;;;;;25.55;33.36;100177.81;4931838;29;20005;-82
2022/10/24 11:49:48;;;;;;;;;;;;;;;25.59;33.85;100172.22;4932035;29;20337;-82
2022/10/24 11:52:14;;;;;;;;;;;;;;;25.61;33.35;100163.03;4931639;29;19921;-81
2022/10/24 11:54:54;;;;;;;;;;;;;;;25.57;33.87;100166.06;4930957;29;19918;-81
2022/10/24 11:57:28;;;;;;;;;;;;;;;25.69;33.25;100159.78;4931549;29;19918;-82
2022/10/24 11:59:54;;;;;;;;;;;;;;;25.68;32.90;100158.91;4931441;29;19919;-81
2022/10/24 12:02:25;;;;;;;;;;;;;;;25.72;33.27;100151.47;4931282;29;19918;-82
2022/10/24 12:05:08;;;;;;;;;;;;;;;25.80;33.24;100151.78;4931244;29;20362;-81
2022/10/24 12:07:34;;;;;;;;;;;;;;;25.71;33.56;100145.19;4930763;29;20309;-82
2022/10/24 12:09:59;;;;;;;;;;;;;;;25.93;32.95;100138.25;4931373;29;19915;-82
2022/10/24 12:12:34;;;;;;;;;;;;;;;25.81;32.96;100142.72;4931479;29;19925;-82
2022/10/24 12:15:06;;;;;;;;;;;;;;;25.91;33.18;100134.78;4931230;29;19918;-83
2022/10/24 12:17:34;;;;;;;;;;;;;;;26.04;32.77;100132.97;4913924;29;20002;-82
2022/10/24 12:20:00;;;;;;;;;;;;;;;25.98;32.96;100138.81;4931036;29;19942;-83
2022/10/24 12:22:32;;;;;;;;;;;;;;;25.92;32.56;100121.16;4931094;29;20401;-82
2022/10/24 12:25:16;;;;;;;;;;;;;;;25.97;32.75;100128.94;4931026;29;19926;-82
2022/10/24 12:27:41;;;;;;;;;;;;;;;25.96;33.40;100118.25;4931233;29;20005;-83
2022/10/24 12:30:12;;;;;;;;;;;;;;;26.13;32.47;100115.19;4931298;29;20009;-82
2022/10/24 12:32:39;;;;;;;;;;;;;;;26.15;32.70;100115.97;4930994;29;20006;-82
2022/10/24 12:35:24;;;;;;;;;;;;;;;26.07;32.92;100104.84;4930858;29;19918;-81
2022/10/24 12:37:50;;;;;;;;;;;;;;;26.41;33.03;100097.78;4930663;29;20740;-81
2022/10/24 12:40:33;;;;;;;;;;;;;;;26.36;32.83;100102.69;4930568;29;19919;-81